Terminal Aerodrome Forecast
Issued by NWS Jacksonville, FL

Home | Current Version | Previous Version | Text Only | Print | Product List | Glossary On
Versions: 1 2 3 4 5 6 7 8 9 10 11 12 13 14 15 16 17 18 19 20
000
FTUS42 KJAX 251722
TAFGNV
TAF
KGNV 251722Z 2518/2618 12012G20KT P6SM VCSH BKN035
     FM260100 13007KT P6SM SCT035
     FM260700 12002KT P6SM OVC015
     FM261300 14005KT P6SM BKN025
     FM261600 14009KT P6SM BKN035=

USA.gov is the U.S. government's official web portal to all federal, state and local government web resources and services.